createdAt,value
2022-09-30T00:00:34.389Z,2.30
2022-09-30T00:03:00.828Z,1.87
2022-09-30T00:05:27.356Z,2.37
2022-09-30T00:07:53.697Z,3.03
2022-09-30T00:10:20.045Z,4.53
2022-09-30T00:12:48.092Z,2.27
2022-09-30T00:15:14.515Z,1.83
2022-09-30T00:17:40.844Z,2.27
2022-09-30T00:20:08.206Z,3.23
2022-09-30T00:22:34.559Z,1.83
2022-09-30T00:25:00.920Z,2.83
2022-09-30T00:27:27.297Z,2.07
2022-09-30T00:29:53.954Z,4.10
2022-09-30T00:32:20.320Z,3.03
2022-09-30T00:34:46.655Z,2.33
2022-09-30T00:37:15.156Z,3.30
2022-09-30T00:39:41.497Z,2.67
2022-09-30T00:42:11.417Z,1.77
2022-09-30T00:44:44.440Z,3.60
2022-09-30T00:47:29.631Z,2.53
2022-09-30T00:49:57.619Z,2.10
2022-09-30T00:52:24.292Z,4.67
2022-09-30T00:54:51.256Z,2.20
2022-09-30T00:57:17.751Z,2.23
2022-09-30T00:59:47.072Z,2.80
2022-09-30T01:02:14.439Z,2.00
2022-09-30T01:04:41.593Z,3.50
2022-09-30T01:07:08.556Z,2.73
2022-09-30T01:09:35.881Z,2.90
2022-09-30T01:12:06.830Z,1.97
2022-09-30T01:14:33.331Z,1.30
2022-09-30T01:17:00.567Z,2.03
2022-09-30T01:19:41.959Z,1.37
2022-09-30T01:22:08.262Z,1.77
2022-09-30T01:24:34.645Z,1.90
2022-09-30T01:27:03.982Z,1.10
2022-09-30T01:29:42.978Z,1.00
2022-09-30T01:32:23.907Z,2.60
2022-09-30T01:34:59.950Z,1.17
2022-09-30T01:37:52.499Z,0.90
2022-09-30T01:40:25.804Z,2.03
2022-09-30T01:43:32.064Z,1.20
2022-09-30T01:46:02.260Z,2.50
2022-09-30T01:48:28.594Z,1.87
2022-09-30T01:51:03.836Z,1.30
2022-09-30T01:53:42.448Z,1.17
2022-09-30T01:56:13.569Z,1.17
2022-09-30T01:58:43.052Z,2.43
2022-09-30T02:01:13.857Z,1.20
2022-09-30T02:03:45.371Z,1.53
2022-09-30T02:06:13.785Z,1.40
2022-09-30T02:08:43.479Z,1.93
2022-09-30T02:11:21.834Z,1.53
2022-09-30T02:13:51.325Z,2.20
2022-09-30T02:16:23.321Z,3.63
2022-09-30T02:18:55.354Z,1.00
2022-09-30T02:21:24.469Z,1.70
2022-09-30T02:23:53.570Z,1.17
2022-09-30T02:26:22.170Z,3.27
2022-09-30T02:28:51.128Z,2.00
2022-09-30T02:31:18.119Z,1.20
2022-09-30T02:33:47.777Z,1.30
2022-09-30T02:36:19.979Z,2.10
2022-09-30T02:38:48.987Z,3.33
2022-09-30T02:41:18.134Z,3.87
2022-09-30T02:43:44.482Z,4.47
2022-09-30T02:46:18.811Z,1.43
2022-09-30T02:48:53.485Z,1.27
2022-09-30T02:51:28.377Z,0.90
2022-09-30T02:54:08.634Z,1.60
2022-09-30T02:56:47.277Z,1.70
2022-09-30T02:59:14.682Z,0.90
2022-09-30T03:01:41.893Z,3.23
2022-09-30T03:04:09.364Z,1.90
2022-09-30T03:06:36.431Z,2.63
2022-09-30T03:09:03.476Z,2.37
2022-09-30T03:11:30.150Z,2.43
2022-09-30T03:14:16.822Z,4.00
2022-09-30T03:16:49.271Z,2.40
2022-09-30T03:19:21.837Z,2.10
2022-09-30T03:22:06.732Z,4.77
2022-09-30T03:24:55.195Z,3.83
2022-09-30T03:27:24.364Z,5.80
2022-09-30T03:30:09.521Z,5.37
2022-09-30T03:32:47.192Z,5.20
2022-09-30T03:35:25.814Z,7.93
2022-09-30T03:38:11.144Z,5.73
2022-09-30T03:40:41.536Z,17.57
2022-09-30T03:43:10.893Z,41.43
2022-09-30T03:45:39.534Z,19.03
2022-09-30T03:48:07.967Z,21.00
2022-09-30T03:50:36.358Z,17.40
2022-09-30T03:53:03.237Z,13.87
2022-09-30T03:55:30.303Z,17.33
2022-09-30T03:57:58.388Z,10.80
2022-09-30T04:00:24.784Z,13.93
2022-09-30T04:02:54.619Z,13.17
2022-09-30T04:05:23.484Z,11.93
2022-09-30T04:07:49.803Z,6.40
2022-09-30T04:10:16.149Z,7.97
2022-09-30T04:12:42.504Z,9.33
2022-09-30T04:15:09.114Z,3.10
2022-09-30T04:17:35.435Z,7.40
2022-09-30T04:20:01.784Z,7.30
2022-09-30T04:22:28.139Z,9.77
2022-09-30T04:24:54.525Z,4.87
2022-09-30T04:27:20.864Z,2.73
2022-09-30T04:29:47.233Z,8.97
2022-09-30T04:32:13.581Z,10.17
2022-09-30T04:34:39.897Z,5.47
2022-09-30T04:37:10.629Z,12.93
2022-09-30T04:39:37.326Z,5.77
2022-09-30T04:42:03.689Z,28.40
2022-09-30T04:44:30.165Z,7.73
2022-09-30T04:46:57.045Z,6.83
2022-09-30T04:49:24.099Z,8.30
2022-09-30T04:51:50.591Z,11.90
2022-09-30T04:54:16.977Z,11.70
2022-09-30T04:56:43.408Z,9.17
2022-09-30T04:59:09.782Z,5.87
2022-09-30T05:01:36.242Z,8.17
2022-09-30T05:04:02.783Z,7.90
2022-09-30T05:06:29.135Z,5.87
2022-09-30T05:08:55.499Z,8.50
2022-09-30T05:11:22.625Z,11.63
2022-09-30T05:13:49.141Z,4.60
2022-09-30T05:16:15.976Z,8.17
2022-09-30T05:18:45.837Z,9.40
2022-09-30T05:21:13.698Z,5.40
2022-09-30T05:23:40.394Z,3.40
2022-09-30T05:26:11.748Z,19.07
2022-09-30T05:28:38.888Z,19.23
2022-09-30T05:31:06.427Z,14.13
2022-09-30T05:33:34.066Z,14.93
2022-09-30T05:36:01.625Z,13.57
2022-09-30T05:38:28.082Z,9.57
2022-09-30T05:40:54.534Z,9.57
2022-09-30T05:43:24.143Z,13.57
2022-09-30T05:45:54.440Z,7.43
2022-09-30T05:48:20.898Z,4.13
2022-09-30T05:50:50.629Z,12.43
2022-09-30T05:53:18.261Z,3.33
2022-09-30T05:55:48.507Z,4.87
2022-09-30T05:58:15.000Z,3.47
2022-09-30T06:00:42.188Z,7.43
2022-09-30T06:03:08.698Z,9.97
2022-09-30T06:05:35.108Z,5.03
2022-09-30T06:08:01.582Z,8.30
2022-09-30T06:10:28.244Z,4.67
2022-09-30T06:12:54.643Z,5.40
2022-09-30T06:15:21.034Z,4.57
2022-09-30T06:17:52.060Z,5.70
2022-09-30T06:20:18.450Z,4.93
2022-09-30T06:22:44.807Z,11.17
2022-09-30T06:25:11.273Z,3.83
2022-09-30T06:27:38.224Z,5.10
2022-09-30T06:30:05.669Z,2.50
2022-09-30T06:32:32.135Z,16.93
2022-09-30T06:34:58.485Z,10.90
2022-09-30T06:37:25.335Z,16.00
2022-09-30T06:39:51.967Z,7.73
2022-09-30T06:42:18.764Z,9.37
2022-09-30T06:44:52.801Z,12.07
2022-09-30T06:47:25.329Z,7.97
2022-09-30T06:49:53.001Z,7.60
2022-09-30T06:52:20.065Z,7.60
2022-09-30T06:54:47.043Z,4.53
2022-09-30T06:57:13.697Z,11.57
2022-09-30T06:59:40.077Z,6.97
2022-09-30T07:02:06.539Z,8.03
2022-09-30T07:04:32.951Z,7.60
2022-09-30T07:06:59.291Z,31.03
2022-09-30T07:09:25.798Z,8.73
2022-09-30T07:11:52.253Z,37.07
2022-09-30T07:14:18.624Z,27.60
2022-09-30T07:16:45.291Z,24.10
2022-09-30T07:19:11.886Z,12.43
2022-09-30T07:21:38.259Z,9.43
2022-09-30T07:24:05.507Z,25.73
2022-09-30T07:26:31.973Z,7.07
2022-09-30T07:29:00.015Z,2.40
2022-09-30T07:31:35.400Z,12.60
2022-09-30T07:34:03.381Z,6.07
2022-09-30T07:36:32.999Z,13.97
2022-09-30T07:39:08.687Z,11.43
2022-09-30T07:41:38.325Z,13.20
2022-09-30T07:44:06.240Z,7.33
2022-09-30T07:46:33.672Z,2.87
2022-09-30T07:49:02.287Z,6.93
2022-09-30T07:51:31.074Z,5.57
2022-09-30T07:54:02.138Z,3.67
2022-09-30T07:56:41.052Z,9.80
2022-09-30T07:59:15.906Z,10.17
2022-09-30T08:01:42.476Z,4.47
2022-09-30T08:04:10.148Z,4.40
2022-09-30T08:06:38.270Z,2.77
2022-09-30T08:09:04.694Z,6.43
2022-09-30T08:11:33.201Z,3.40
2022-09-30T08:13:59.580Z,6.47
2022-09-30T08:16:26.468Z,2.90
2022-09-30T08:19:00.633Z,3.10
2022-09-30T08:21:27.647Z,10.63
2022-09-30T08:23:54.436Z,11.60
2022-09-30T08:26:21.078Z,9.63
2022-09-30T08:28:48.203Z,7.50
2022-09-30T08:31:16.781Z,7.17
2022-09-30T08:33:43.620Z,4.37
2022-09-30T08:36:12.103Z,4.30
2022-09-30T08:38:38.714Z,3.80
2022-09-30T08:41:11.796Z,5.23
2022-09-30T08:43:58.103Z,7.33
2022-09-30T08:46:43.994Z,3.80
2022-09-30T08:49:21.457Z,3.63
2022-09-30T08:51:49.838Z,3.50
2022-09-30T08:54:21.355Z,5.07
2022-09-30T08:56:48.811Z,4.03
2022-09-30T08:59:35.490Z,3.60
2022-09-30T09:02:27.628Z,3.73
2022-09-30T09:04:57.679Z,3.00
2022-09-30T09:07:25.821Z,3.93
2022-09-30T09:10:16.781Z,3.70
2022-09-30T09:13:02.311Z,4.93
2022-09-30T09:15:49.907Z,5.37
2022-09-30T09:18:23.645Z,4.40
2022-09-30T09:20:54.552Z,4.00
2022-09-30T09:23:21.955Z,3.70
2022-09-30T09:25:52.910Z,4.40
2022-09-30T09:28:22.532Z,4.30
2022-09-30T09:30:52.042Z,3.50
2022-09-30T09:33:21.755Z,4.27
2022-09-30T09:36:02.284Z,3.80
2022-09-30T09:38:36.075Z,3.97
2022-09-30T09:41:21.293Z,3.00
2022-09-30T09:43:59.129Z,3.10
2022-09-30T09:46:52.890Z,3.10
2022-09-30T09:49:28.117Z,3.83
2022-09-30T09:52:06.979Z,3.13
2022-09-30T09:54:37.593Z,2.83
2022-09-30T09:57:09.378Z,2.50
2022-09-30T09:59:36.737Z,2.70
2022-09-30T10:02:03.193Z,3.97
2022-09-30T10:04:30.634Z,3.37
2022-09-30T10:07:01.466Z,3.27
2022-09-30T10:09:38.139Z,2.93
2022-09-30T10:12:07.598Z,4.20
2022-09-30T10:14:34.557Z,3.23
2022-09-30T10:17:05.442Z,3.40
2022-09-30T10:19:33.725Z,3.80
2022-09-30T10:22:08.992Z,4.60
2022-09-30T10:24:36.404Z,5.67
2022-09-30T10:27:02.871Z,6.10
2022-09-30T10:29:31.873Z,4.50
2022-09-30T10:32:02.837Z,4.40
2022-09-30T10:34:30.703Z,12.83
2022-09-30T10:36:58.679Z,4.70
2022-09-30T10:39:26.729Z,3.50
2022-09-30T10:42:26.324Z,5.97
2022-09-30T10:44:55.546Z,4.00
2022-09-30T10:47:23.238Z,4.63
2022-09-30T10:49:55.543Z,3.50
2022-09-30T10:52:28.049Z,4.87
2022-09-30T10:54:58.722Z,5.00
2022-09-30T10:57:37.379Z,2.97
2022-09-30T11:00:05.590Z,4.10
2022-09-30T11:02:53.275Z,5.03
2022-09-30T11:05:27.653Z,2.67
2022-09-30T11:08:03.491Z,2.50
2022-09-30T11:10:35.930Z,1.90
2022-09-30T11:13:07.632Z,1.90
2022-09-30T11:15:40.292Z,2.57
2022-09-30T11:18:12.803Z,4.50
2022-09-30T11:20:41.207Z,2.50
2022-09-30T11:23:15.909Z,2.17
2022-09-30T11:25:49.629Z,2.23
2022-09-30T11:28:28.402Z,1.70
2022-09-30T11:31:21.319Z,1.50
2022-09-30T11:33:58.423Z,1.23
2022-09-30T11:36:35.026Z,0.80
2022-09-30T11:39:05.436Z,1.47
2022-09-30T11:41:43.304Z,0.90
2022-09-30T11:44:18.917Z,1.00
2022-09-30T11:46:47.939Z,1.63
2022-09-30T11:49:14.498Z,1.47
2022-09-30T11:51:46.761Z,1.47
2022-09-30T11:54:19.212Z,1.53
2022-09-30T11:56:45.601Z,1.17
2022-09-30T11:59:16.668Z,2.83
2022-09-30T12:01:45.455Z,1.40
2022-09-30T12:04:24.599Z,1.23
2022-09-30T12:06:55.471Z,1.00
2022-09-30T12:09:26.007Z,2.30
2022-09-30T12:11:55.681Z,2.30
2022-09-30T12:14:28.563Z,3.37
2022-09-30T12:16:56.740Z,2.17
2022-09-30T12:19:34.256Z,1.43
2022-09-30T12:22:12.340Z,2.60
2022-09-30T12:24:40.147Z,1.70
2022-09-30T12:27:23.691Z,1.50
2022-09-30T12:30:15.928Z,1.37
2022-09-30T12:32:51.213Z,1.53
2022-09-30T12:35:37.844Z,1.33
2022-09-30T12:38:16.487Z,1.70
2022-09-30T12:40:56.053Z,5.10
2022-09-30T12:43:41.162Z,2.07
2022-09-30T12:46:28.737Z,1.43
2022-09-30T12:48:58.582Z,2.10
2022-09-30T12:51:32.771Z,1.27
2022-09-30T12:54:05.877Z,1.43
2022-09-30T12:56:33.315Z,3.17
2022-09-30T12:59:00.705Z,1.70
2022-09-30T13:01:28.546Z,1.30
2022-09-30T13:04:01.170Z,9.27
2022-09-30T13:06:29.092Z,1.30
2022-09-30T13:08:55.635Z,1.70
2022-09-30T13:11:41.876Z,1.20
2022-09-30T13:14:30.044Z,1.77
2022-09-30T13:17:41.221Z,1.20
2022-09-30T13:20:27.762Z,0.83
2022-09-30T13:22:54.685Z,0.97
2022-09-30T13:25:21.160Z,0.80
2022-09-30T13:27:51.503Z,0.77
2022-09-30T13:30:17.877Z,1.97
2022-09-30T13:33:02.201Z,1.70
2022-09-30T13:35:37.483Z,1.47
2022-09-30T13:38:12.948Z,0.87
2022-09-30T13:41:02.376Z,1.17
2022-09-30T13:43:35.741Z,1.27
2022-09-30T13:46:08.666Z,1.17
2022-09-30T13:48:36.763Z,1.30
2022-09-30T13:51:14.763Z,1.87
2022-09-30T13:54:01.776Z,1.27
2022-09-30T13:56:30.448Z,0.80
2022-09-30T13:59:16.061Z,0.73
2022-09-30T14:01:42.417Z,1.80
2022-09-30T14:04:27.489Z,1.80
2022-09-30T14:07:17.569Z,1.67
2022-09-30T14:09:52.071Z,8.10
2022-09-30T14:12:28.495Z,4.07
2022-09-30T14:15:13.893Z,7.63
2022-09-30T14:17:59.280Z,3.27
2022-09-30T14:20:34.188Z,1.17
2022-09-30T14:23:00.763Z,1.17
2022-09-30T14:25:31.896Z,1.73
2022-09-30T14:28:03.335Z,1.53
2022-09-30T14:30:32.315Z,2.13
2022-09-30T14:33:02.893Z,0.93
2022-09-30T14:35:31.344Z,1.03
2022-09-30T14:38:02.733Z,1.63
2022-09-30T14:40:33.875Z,0.97
2022-09-30T14:43:02.850Z,1.33
2022-09-30T14:45:31.537Z,0.80
2022-09-30T14:47:59.663Z,0.83
2022-09-30T14:50:28.122Z,1.93
2022-09-30T14:52:58.597Z,1.30
2022-09-30T14:55:30.428Z,1.57
2022-09-30T14:58:17.466Z,0.80
2022-09-30T15:00:45.044Z,1.53
2022-09-30T15:03:12.395Z,1.10
2022-09-30T15:05:39.230Z,1.27
2022-09-30T15:08:18.806Z,2.80
2022-09-30T15:10:49.599Z,1.13
2022-09-30T15:13:17.278Z,1.40
2022-09-30T15:15:43.641Z,1.27
2022-09-30T15:18:23.984Z,1.00
2022-09-30T15:20:52.016Z,1.00
2022-09-30T15:23:20.224Z,2.23
2022-09-30T15:25:46.765Z,1.20
2022-09-30T15:28:13.420Z,0.87
2022-09-30T15:30:43.143Z,1.53
2022-09-30T15:33:16.804Z,1.77
2022-09-30T15:35:43.407Z,0.87
2022-09-30T15:38:15.161Z,1.07
2022-09-30T15:40:50.448Z,0.87
2022-09-30T15:43:30.187Z,1.23
2022-09-30T15:45:58.187Z,1.40
2022-09-30T15:48:27.374Z,2.40
2022-09-30T15:51:01.105Z,1.10
2022-09-30T15:53:31.288Z,1.87
2022-09-30T15:55:58.558Z,2.40
2022-09-30T15:58:37.812Z,1.50
2022-09-30T16:01:16.985Z,2.53
2022-09-30T16:03:49.472Z,0.80
2022-09-30T16:06:16.080Z,1.73
2022-09-30T16:08:42.867Z,1.17
2022-09-30T16:11:09.844Z,0.83
2022-09-30T16:13:38.102Z,0.90
2022-09-30T16:16:13.581Z,3.20
2022-09-30T16:18:43.432Z,3.67
2022-09-30T16:21:26.905Z,1.13
2022-09-30T16:23:54.525Z,2.03
2022-09-30T16:26:29.945Z,0.93
2022-09-30T16:28:56.678Z,3.67
2022-09-30T16:31:24.014Z,4.47
2022-09-30T16:33:50.421Z,2.37
2022-09-30T16:36:16.828Z,2.33
2022-09-30T16:38:43.242Z,1.23
2022-09-30T16:41:13.136Z,1.00
2022-09-30T16:43:39.787Z,1.70
2022-09-30T16:46:07.008Z,1.90
2022-09-30T16:48:34.969Z,2.13
2022-09-30T16:51:04.504Z,1.07
2022-09-30T16:53:30.860Z,1.80
2022-09-30T16:55:57.244Z,1.20
2022-09-30T16:58:23.678Z,1.33
2022-09-30T17:00:50.144Z,1.97
2022-09-30T17:03:17.268Z,1.80
2022-09-30T17:05:44.790Z,1.10
2022-09-30T17:08:14.614Z,1.80
2022-09-30T17:10:42.853Z,1.90
2022-09-30T17:13:09.384Z,3.43
2022-09-30T17:15:37.345Z,4.40
2022-09-30T17:18:07.872Z,5.10
2022-09-30T17:20:34.656Z,7.90
2022-09-30T17:23:06.270Z,8.73
2022-09-30T17:25:33.619Z,11.13
2022-09-30T17:28:00.165Z,10.13
2022-09-30T17:30:27.042Z,9.30
2022-09-30T17:32:53.424Z,7.93
2022-09-30T17:35:20.020Z,7.30
2022-09-30T17:37:47.655Z,6.73
2022-09-30T17:40:32.797Z,6.07
2022-09-30T17:43:08.531Z,9.90
2022-09-30T17:45:35.391Z,7.97
2022-09-30T17:48:01.940Z,7.37
2022-09-30T17:50:28.288Z,6.63
2022-09-30T17:52:54.642Z,6.27
2022-09-30T17:55:20.989Z,7.87
2022-09-30T17:57:47.345Z,6.20
2022-09-30T18:00:13.693Z,4.80
2022-09-30T18:02:41.823Z,4.83
2022-09-30T18:05:08.269Z,5.67
2022-09-30T18:07:34.637Z,9.60
2022-09-30T18:10:01.732Z,11.80
2022-09-30T18:12:28.077Z,11.23
2022-09-30T18:14:55.033Z,11.30
2022-09-30T18:17:21.912Z,7.40
2022-09-30T18:19:48.384Z,4.57
2022-09-30T18:22:14.771Z,5.80
2022-09-30T18:24:59.878Z,4.67
2022-09-30T18:27:27.999Z,5.67
2022-09-30T18:29:54.404Z,11.77
2022-09-30T18:32:20.772Z,10.27
2022-09-30T18:34:47.114Z,9.37
2022-09-30T18:37:13.461Z,8.50
2022-09-30T18:39:39.906Z,8.70
2022-09-30T18:42:06.277Z,8.37
2022-09-30T18:44:32.736Z,9.97
2022-09-30T18:46:59.709Z,12.43
2022-09-30T18:49:26.487Z,8.13
2022-09-30T18:51:52.868Z,6.63
2022-09-30T18:54:19.241Z,6.23
2022-09-30T18:56:46.269Z,5.30
2022-09-30T18:59:19.510Z,6.63
2022-09-30T19:01:49.312Z,5.30
2022-09-30T19:04:15.853Z,6.40
2022-09-30T19:06:42.786Z,6.37
2022-09-30T19:09:09.123Z,6.70
2022-09-30T19:11:36.387Z,6.47
2022-09-30T19:14:03.817Z,8.50
2022-09-30T19:16:35.259Z,8.67
2022-09-30T19:19:04.682Z,10.27
2022-09-30T19:21:33.311Z,7.13
2022-09-30T19:24:00.015Z,6.70
2022-09-30T19:26:30.197Z,4.80
2022-09-30T19:28:56.928Z,6.67
2022-09-30T19:31:24.030Z,6.53
2022-09-30T19:33:56.680Z,9.33
2022-09-30T19:36:23.966Z,8.73
2022-09-30T19:38:52.317Z,5.57
2022-09-30T19:41:24.085Z,8.93
2022-09-30T19:43:50.723Z,9.10
2022-09-30T19:46:18.189Z,8.53
2022-09-30T19:48:45.150Z,9.27
2022-09-30T19:51:12.687Z,9.43
2022-09-30T19:53:41.882Z,8.93
2022-09-30T19:56:13.223Z,12.37
2022-09-30T19:58:40.731Z,10.10
2022-09-30T20:01:08.136Z,14.33
2022-09-30T20:03:34.837Z,11.17
2022-09-30T20:06:01.922Z,14.63
2022-09-30T20:08:29.355Z,13.17
2022-09-30T20:11:07.051Z,10.83
2022-09-30T20:13:33.567Z,13.97
2022-09-30T20:16:04.873Z,14.13
2022-09-30T20:18:31.602Z,12.20
2022-09-30T20:20:58.315Z,10.50
2022-09-30T20:23:24.865Z,7.77
2022-09-30T20:25:52.714Z,7.00
2022-09-30T20:28:20.150Z,6.73
2022-09-30T20:30:47.157Z,7.63
2022-09-30T20:33:25.932Z,6.47
2022-09-30T20:35:52.319Z,7.77
2022-09-30T20:38:24.665Z,6.60
2022-09-30T20:40:55.030Z,5.83
2022-09-30T20:43:21.408Z,5.63
2022-09-30T20:45:54.181Z,5.37
2022-09-30T20:48:21.004Z,7.87
2022-09-30T20:50:49.207Z,8.63
2022-09-30T20:53:15.887Z,7.97
2022-09-30T20:55:46.279Z,7.67
2022-09-30T20:58:13.000Z,5.83
2022-09-30T21:00:41.480Z,6.63
2022-09-30T21:03:08.941Z,7.30
2022-09-30T21:05:35.409Z,7.30
2022-09-30T21:08:02.118Z,6.57
2022-09-30T21:10:31.862Z,7.10
2022-09-30T21:13:00.521Z,7.43
2022-09-30T21:15:27.741Z,7.83
2022-09-30T21:17:54.853Z,9.77
2022-09-30T21:20:22.157Z,8.80
2022-09-30T21:22:48.636Z,9.33
2022-09-30T21:25:15.235Z,8.77
2022-09-30T21:27:45.112Z,10.93
2022-09-30T21:30:11.603Z,8.80
2022-09-30T21:32:40.669Z,7.93
2022-09-30T21:35:08.325Z,5.73
2022-09-30T21:37:34.793Z,8.07
2022-09-30T21:40:01.339Z,7.07
2022-09-30T21:42:27.907Z,7.53
2022-09-30T21:44:54.263Z,5.50
2022-09-30T21:47:20.616Z,4.83
2022-09-30T21:49:47.027Z,8.13
2022-09-30T21:52:13.386Z,6.37
2022-09-30T21:54:40.243Z,7.47
2022-09-30T21:57:07.361Z,4.83
2022-09-30T21:59:36.992Z,5.57
2022-09-30T22:02:03.453Z,7.17
2022-09-30T22:04:29.868Z,4.53
2022-09-30T22:06:56.256Z,5.70
2022-09-30T22:09:22.666Z,6.00
2022-09-30T22:11:49.589Z,6.97
2022-09-30T22:14:16.084Z,6.50
2022-09-30T22:16:42.580Z,7.80
2022-09-30T22:19:09.095Z,10.03
2022-09-30T22:21:36.682Z,8.03
2022-09-30T22:24:04.753Z,8.50
2022-09-30T22:26:32.834Z,7.87
2022-09-30T22:29:04.064Z,7.33
2022-09-30T22:31:31.449Z,8.83
2022-09-30T22:34:18.324Z,9.10
2022-09-30T22:37:03.778Z,7.47
2022-09-30T22:39:30.265Z,8.00
2022-09-30T22:41:57.388Z,8.37
2022-09-30T22:44:25.567Z,8.23
2022-09-30T22:46:55.843Z,9.50
2022-09-30T22:49:22.431Z,5.37
2022-09-30T22:51:53.962Z,4.93
2022-09-30T22:54:20.887Z,4.73
2022-09-30T22:56:50.269Z,5.13
2022-09-30T22:59:20.390Z,4.37
2022-09-30T23:01:48.335Z,5.77
2022-09-30T23:04:16.531Z,3.67
2022-09-30T23:06:43.485Z,5.00
2022-09-30T23:09:09.840Z,5.53
2022-09-30T23:11:36.478Z,4.03
2022-09-30T23:14:03.174Z,4.40
2022-09-30T23:16:29.585Z,6.43
2022-09-30T23:18:56.495Z,5.40
2022-09-30T23:21:22.860Z,6.03
2022-09-30T23:23:49.279Z,7.53
2022-09-30T23:26:15.583Z,4.10
2022-09-30T23:28:42.338Z,5.60
2022-09-30T23:31:12.922Z,5.80
2022-09-30T23:33:43.120Z,5.70
2022-09-30T23:36:10.377Z,7.10
2022-09-30T23:38:36.728Z,5.83
2022-09-30T23:41:03.075Z,6.20
2022-09-30T23:43:31.074Z,4.47
2022-09-30T23:45:58.320Z,5.03
2022-09-30T23:48:24.805Z,4.93
2022-09-30T23:50:51.595Z,5.03
2022-09-30T23:53:18.072Z,4.50
2022-09-30T23:55:56.860Z,4.80
2022-09-30T23:58:23.804Z,5.73
